createdAt,value
2019-04-19T00:02:04.370Z,6.77
2019-04-19T00:04:29.345Z,6.74
2019-04-19T00:07:10.620Z,6.72
2019-04-19T00:09:43.655Z,6.75
2019-04-19T00:12:21.806Z,6.75
2019-04-19T00:14:40.635Z,6.70
2019-04-19T00:17:13.934Z,6.72
2019-04-19T00:20:04.279Z,6.73
2019-04-19T00:22:31.813Z,6.69
2019-04-19T00:24:47.878Z,6.63
2019-04-19T00:27:20.216Z,6.57
2019-04-19T00:29:58.177Z,6.54
2019-04-19T00:32:36.049Z,6.54
2019-04-19T00:34:54.826Z,6.47
2019-04-19T00:37:25.088Z,6.49
2019-04-19T00:40:22.680Z,6.41
2019-04-19T00:42:57.181Z,6.33
2019-04-19T00:46:00.823Z,6.25
2019-04-19T00:48:29.586Z,6.20
2019-04-19T00:50:59.068Z,6.17
2019-04-19T00:53:28.663Z,6.12
2019-04-19T00:55:59.894Z,6.10
2019-04-19T00:58:26.409Z,6.07
2019-04-19T01:01:04.686Z,6.07
2019-04-19T01:03:32.860Z,5.99
2019-04-19T01:06:04.788Z,6.03
2019-04-19T01:08:30.713Z,6.04
2019-04-19T01:11:17.178Z,5.98
2019-04-19T01:13:51.439Z,5.98
2019-04-19T01:16:15.870Z,5.96
2019-04-19T01:18:48.404Z,5.94
2019-04-19T01:21:09.492Z,5.92
2019-04-19T01:23:46.576Z,5.86
2019-04-19T01:26:14.870Z,5.87
2019-04-19T01:28:52.925Z,5.87
2019-04-19T01:31:21.401Z,5.83
2019-04-19T01:33:49.152Z,5.82
2019-04-19T01:36:28.862Z,5.79
2019-04-19T01:39:11.785Z,5.73
2019-04-19T01:41:37.118Z,5.69
2019-04-19T01:44:25.141Z,5.72
2019-04-19T01:47:07.849Z,5.67
2019-04-19T01:50:07.541Z,5.67
2019-04-19T01:55:09.748Z,5.62
2019-04-19T01:57:30.434Z,5.59
2019-04-19T02:00:02.641Z,5.56
2019-04-19T02:02:36.746Z,5.49
2019-04-19T02:05:12.362Z,5.50
2019-04-19T02:07:40.419Z,5.46
2019-04-19T02:10:57.431Z,5.46
2019-04-19T02:13:51.102Z,5.48
2019-04-19T02:16:17.024Z,5.45
2019-04-19T02:18:45.297Z,5.36
2019-04-19T02:21:22.711Z,5.30
2019-04-19T02:23:52.651Z,5.18
2019-04-19T02:26:21.535Z,5.17
2019-04-19T02:28:51.395Z,5.17
2019-04-19T02:31:43.569Z,5.16
2019-04-19T02:34:32.074Z,5.10
2019-04-19T02:37:02.437Z,5.01
2019-04-19T02:39:28.814Z,5.03
2019-04-19T02:42:00.174Z,5.02
2019-04-19T02:44:23.883Z,4.98
2019-04-19T02:47:09.201Z,4.92
2019-04-19T02:49:54.495Z,4.89
2019-04-19T02:57:39.551Z,4.88
2019-04-19T03:00:47.195Z,4.82
2019-04-19T03:03:15.176Z,4.78
2019-04-19T03:05:41.877Z,4.77
2019-04-19T03:07:53.755Z,4.69
2019-04-19T03:10:26.521Z,4.62
2019-04-19T03:13:13.886Z,4.61
2019-04-19T03:18:27.731Z,4.58
2019-04-19T03:20:47.512Z,4.59
2019-04-19T03:23:23.238Z,4.56
2019-04-19T03:25:48.239Z,4.57
2019-04-19T03:28:22.183Z,4.52
2019-04-19T03:31:13.977Z,4.51
2019-04-19T03:33:44.085Z,4.49
2019-04-19T03:36:05.877Z,4.46
2019-04-19T03:38:40.427Z,4.41
2019-04-19T03:41:18.525Z,4.35
2019-04-19T03:43:48.946Z,4.34
2019-04-19T03:46:48.610Z,4.33
2019-04-19T03:49:08.994Z,4.30
2019-04-19T03:51:26.249Z,4.29
2019-04-19T03:54:11.644Z,4.30
2019-04-19T03:56:34.456Z,4.26
2019-04-19T03:58:43.807Z,4.21
2019-04-19T04:01:14.987Z,4.17
2019-04-19T04:03:49.068Z,4.16
2019-04-19T04:06:23.005Z,4.14
2019-04-19T04:08:59.002Z,4.08
2019-04-19T04:11:53.060Z,4.05
2019-04-19T04:14:45.643Z,4.08
2019-04-19T04:17:07.922Z,4.06
2019-04-19T04:19:38.252Z,3.99
2019-04-19T04:22:16.714Z,3.92
2019-04-19T04:24:53.419Z,3.90
2019-04-19T04:27:30.246Z,3.90
2019-04-19T04:30:00.251Z,3.89
2019-04-19T04:32:34.659Z,3.88
2019-04-19T04:35:10.475Z,3.87
2019-04-19T04:37:42.110Z,3.85
2019-04-19T04:39:57.737Z,3.80
2019-04-19T04:42:33.962Z,3.84
2019-04-19T04:45:23.229Z,3.85
2019-04-19T04:47:53.624Z,3.94
2019-04-19T04:50:54.965Z,4.11
2019-04-19T04:53:06.680Z,4.31
2019-04-19T04:55:45.091Z,4.59
2019-04-19T04:58:19.767Z,4.85
2019-04-19T05:00:50.937Z,5.00
2019-04-19T05:03:35.578Z,5.02
2019-04-19T05:06:07.825Z,5.21
2019-04-19T05:08:40.119Z,5.42
2019-04-19T05:11:13.682Z,5.60
2019-04-19T05:13:43.838Z,5.76
2019-04-19T05:16:22.214Z,5.95
2019-04-19T05:18:45.608Z,6.23
2019-04-19T05:21:21.871Z,6.61
2019-04-19T05:24:01.656Z,6.98
2019-04-19T05:26:37.476Z,7.20
2019-04-19T05:28:56.546Z,7.50
2019-04-19T05:31:16.568Z,7.75
2019-04-19T05:33:51.666Z,7.89
2019-04-19T05:36:34.810Z,8.06
2019-04-19T05:39:12.621Z,8.35
2019-04-19T05:42:03.832Z,8.61
2019-04-19T05:45:04.817Z,8.65
2019-04-19T05:47:23.942Z,8.68
2019-04-19T05:49:56.428Z,8.80
2019-04-19T05:52:28.747Z,9.15
2019-04-19T05:54:42.964Z,9.52
2019-04-19T05:57:31.911Z,9.95
2019-04-19T05:59:54.788Z,10.03
2019-04-19T06:02:27.441Z,10.25
2019-04-19T06:05:15.584Z,11.02
2019-04-19T06:07:39.040Z,11.02
2019-04-19T06:09:54.142Z,11.46
2019-04-19T06:12:28.598Z,11.82
2019-04-19T06:15:19.127Z,12.09
2019-04-19T06:17:56.703Z,12.57
2019-04-19T06:20:30.493Z,13.18
2019-04-19T06:23:02.758Z,13.50
2019-04-19T06:25:47.679Z,13.86
2019-04-19T06:30:48.262Z,14.40
2019-04-19T06:33:18.309Z,14.93
2019-04-19T06:35:38.700Z,15.38
2019-04-19T06:38:01.295Z,16.01
2019-04-19T06:40:34.412Z,16.60
2019-04-19T06:43:11.329Z,17.00
2019-04-19T06:45:55.529Z,17.32
2019-04-19T06:48:14.311Z,17.78
2019-04-19T06:50:43.770Z,18.00
2019-04-19T06:53:12.392Z,18.54
2019-04-19T06:55:48.019Z,18.92
2019-04-19T06:58:21.808Z,19.36
2019-04-19T07:01:00.693Z,19.81
2019-04-19T07:03:19.609Z,20.13
2019-04-19T07:06:09.055Z,20.54
2019-04-19T07:11:16.533Z,20.95
2019-04-19T07:13:39.387Z,21.33
2019-04-19T07:16:28.932Z,21.17
2019-04-19T07:18:42.658Z,21.75
2019-04-19T07:21:21.558Z,22.09
2019-04-19T07:23:59.189Z,22.88
2019-04-19T07:26:26.974Z,23.01
2019-04-19T07:28:41.420Z,23.67
2019-04-19T07:31:13.473Z,23.94
2019-04-19T07:33:53.761Z,24.09
2019-04-19T07:36:39.083Z,24.75
2019-04-19T07:39:09.276Z,25.42
2019-04-19T07:41:38.362Z,25.60
2019-04-19T07:44:21.320Z,26.15
2019-04-19T07:47:20.150Z,26.70
2019-04-19T07:49:46.510Z,26.98
2019-04-19T07:52:16.348Z,26.61
2019-04-19T07:54:42.356Z,27.55
2019-04-19T07:57:56.115Z,27.80
2019-04-19T08:00:16.742Z,28.72
2019-04-19T08:05:26.737Z,29.44
2019-04-19T08:08:01.153Z,29.35
2019-04-19T08:10:18.500Z,29.77
2019-04-19T08:12:52.059Z,30.55
2019-04-19T08:18:13.366Z,31.05
2019-04-19T08:27:50.671Z,32.26
2019-04-19T08:30:17.814Z,31.75
2019-04-19T08:32:45.030Z,31.55
2019-04-19T08:35:17.709Z,31.31
2019-04-19T08:37:48.973Z,31.38
2019-04-19T08:40:38.208Z,32.35
2019-04-19T08:43:13.258Z,33.38
2019-04-19T08:46:01.267Z,34.04
2019-04-19T08:48:59.404Z,34.81
2019-04-19T08:51:59.992Z,35.23
2019-04-19T08:54:56.198Z,35.55
2019-04-19T08:57:08.167Z,35.83
2019-04-19T08:59:53.858Z,35.78
2019-04-19T09:02:24.935Z,35.82
2019-04-19T09:04:54.798Z,36.43
2019-04-19T09:10:17.778Z,37.97
2019-04-19T09:12:31.288Z,38.28
2019-04-19T09:15:11.708Z,37.55
2019-04-19T09:17:59.339Z,37.97
2019-04-19T09:20:15.655Z,38.10
2019-04-19T09:22:56.587Z,38.77
2019-04-19T09:25:31.795Z,39.62
2019-04-19T09:28:15.092Z,39.50
2019-04-19T09:30:43.782Z,38.86
2019-04-19T09:33:01.136Z,37.29
2019-04-19T09:35:39.904Z,38.56
2019-04-19T09:38:15.070Z,38.96
2019-04-19T09:40:44.543Z,38.19
2019-04-19T09:43:24.111Z,40.20
2019-04-19T09:45:40.460Z,40.63
2019-04-19T09:48:31.650Z,40.80
2019-04-19T09:51:00.021Z,41.38
2019-04-19T09:53:51.897Z,40.20
2019-04-19T09:56:07.024Z,41.04
2019-04-19T09:58:40.476Z,41.32
2019-04-19T10:01:06.545Z,41.85
2019-04-19T10:03:44.329Z,42.50
2019-04-19T10:06:10.909Z,41.96
2019-04-19T10:08:42.140Z,40.42
2019-04-19T10:11:12.811Z,40.48
2019-04-19T10:13:43.987Z,41.26
2019-04-19T10:16:34.684Z,40.50
2019-04-19T10:19:07.782Z,40.89
2019-04-19T10:21:52.565Z,42.24
2019-04-19T10:24:24.274Z,43.64
2019-04-19T10:27:17.138Z,44.52
2019-04-19T10:29:49.106Z,43.81
2019-04-19T10:32:38.814Z,44.78
2019-04-19T10:35:09.595Z,42.80
2019-04-19T10:37:40.132Z,41.21
2019-04-19T10:40:13.885Z,40.83
2019-04-19T10:42:45.184Z,41.48
2019-04-19T10:45:16.313Z,41.27
2019-04-19T10:47:47.611Z,41.71
2019-04-19T10:50:30.299Z,41.05
2019-04-19T10:52:52.592Z,37.71
2019-04-19T10:55:26.515Z,36.53
2019-04-19T10:57:58.892Z,35.22
2019-04-19T11:00:29.659Z,35.62
2019-04-19T11:03:01.127Z,35.01
2019-04-19T11:05:34.541Z,34.43
2019-04-19T11:08:05.660Z,30.44
2019-04-19T11:10:36.392Z,31.39
2019-04-19T11:13:06.894Z,31.33
2019-04-19T11:15:38.244Z,30.92
2019-04-19T11:18:09.755Z,30.49
2019-04-19T11:20:47.302Z,30.30
2019-04-19T11:23:13.657Z,30.97
2019-04-19T11:25:46.123Z,31.57
2019-04-19T11:28:16.457Z,31.65
2019-04-19T11:30:52.997Z,30.65
2019-04-19T11:33:25.762Z,28.54
2019-04-19T11:35:57.522Z,27.46
2019-04-19T11:38:29.097Z,28.50
2019-04-19T11:41:00.921Z,28.05
2019-04-19T11:43:31.825Z,27.59
2019-04-19T11:46:04.054Z,28.12
2019-04-19T11:48:35.909Z,28.12
2019-04-19T11:51:07.781Z,27.69
2019-04-19T11:53:42.900Z,27.33
2019-04-19T11:56:54.234Z,27.34
2019-04-19T11:59:37.056Z,27.04
2019-04-19T12:02:01.868Z,26.63
2019-04-19T12:04:32.489Z,26.79
2019-04-19T12:07:02.880Z,26.80
2019-04-19T12:09:34.359Z,26.67
2019-04-19T12:12:05.426Z,26.10
2019-04-19T12:14:36.192Z,25.97
2019-04-19T12:17:07.101Z,25.97
2019-04-19T12:19:46.387Z,26.02
2019-04-19T12:22:10.880Z,26.83
2019-04-19T12:24:42.569Z,27.08
2019-04-19T12:27:13.815Z,26.55
2019-04-19T12:29:48.209Z,26.58
2019-04-19T12:32:17.191Z,26.80
2019-04-19T12:34:48.651Z,26.71
2019-04-19T12:37:19.469Z,26.29
2019-04-19T12:39:50.837Z,25.81
2019-04-19T12:42:46.717Z,25.68
2019-04-19T12:45:19.796Z,25.77
2019-04-19T12:47:51.168Z,25.41
2019-04-19T12:50:23.976Z,26.17
2019-04-19T12:52:54.260Z,26.55
2019-04-19T12:55:24.412Z,26.54
2019-04-19T12:58:01.891Z,26.30
2019-04-19T13:00:50.645Z,26.22
2019-04-19T13:03:39.618Z,26.13
2019-04-19T13:06:11.504Z,25.95
2019-04-19T13:08:43.174Z,27.37
2019-04-19T13:11:15.254Z,29.41
2019-04-19T13:13:45.890Z,31.20
2019-04-19T13:16:16.679Z,32.79
2019-04-19T13:18:48.408Z,33.81
2019-04-19T13:21:19.876Z,33.49
2019-04-19T13:23:50.627Z,33.17
2019-04-19T13:26:21.149Z,33.95
2019-04-19T13:28:53.382Z,33.74
2019-04-19T13:31:24.832Z,34.99
2019-04-19T13:33:55.573Z,33.50
2019-04-19T13:36:45.078Z,33.71
2019-04-19T13:39:34.307Z,33.54
2019-04-19T13:42:10.978Z,33.29
2019-04-19T13:44:41.221Z,33.44
2019-04-19T13:47:12.827Z,33.80
2019-04-19T13:49:44.417Z,33.54
2019-04-19T13:52:14.903Z,33.90
2019-04-19T13:54:45.332Z,34.31
2019-04-19T13:57:15.669Z,34.01
2019-04-19T13:59:54.085Z,34.22
2019-04-19T14:02:20.467Z,34.63
2019-04-19T14:04:50.298Z,33.49
2019-04-19T14:07:23.122Z,32.75
2019-04-19T14:09:54.823Z,31.16
2019-04-19T14:12:25.396Z,30.14
2019-04-19T14:14:56.987Z,29.45
2019-04-19T14:17:27.518Z,28.09
2019-04-19T14:19:58.628Z,27.76
2019-04-19T14:22:29.631Z,27.02
2019-04-19T14:25:01.015Z,26.36
2019-04-19T14:27:31.367Z,26.00
2019-04-19T14:30:01.771Z,25.62
2019-04-19T14:32:33.150Z,25.88
2019-04-19T14:35:03.736Z,25.82
2019-04-19T14:37:34.160Z,25.24
2019-04-19T14:40:04.982Z,25.60
2019-04-19T14:42:36.323Z,25.35
2019-04-19T14:45:08.014Z,25.35
2019-04-19T14:47:39.106Z,25.36
2019-04-19T14:50:10.668Z,25.07
2019-04-19T14:52:42.178Z,24.94
2019-04-19T14:55:13.742Z,24.49
2019-04-19T14:57:44.393Z,24.62
2019-04-19T15:00:18.869Z,24.33
2019-04-19T15:02:56.784Z,24.07
2019-04-19T15:05:30.085Z,23.99
2019-04-19T15:08:01.156Z,24.02
2019-04-19T15:10:33.515Z,23.72
2019-04-19T15:13:04.931Z,23.82
2019-04-19T15:15:35.746Z,23.62
2019-04-19T15:18:06.634Z,23.79
2019-04-19T15:20:38.089Z,23.76
2019-04-19T15:23:08.609Z,23.56
2019-04-19T15:25:40.136Z,23.81
2019-04-19T15:28:11.085Z,23.53
2019-04-19T15:30:43.504Z,23.53
2019-04-19T15:33:14.307Z,23.53
2019-04-19T15:35:45.749Z,23.45
2019-04-19T15:38:16.150Z,23.37
2019-04-19T15:40:46.302Z,23.40
2019-04-19T15:43:17.091Z,23.31
2019-04-19T15:45:47.678Z,23.25
2019-04-19T15:48:28.743Z,23.30
2019-04-19T15:50:50.180Z,23.19
2019-04-19T15:53:22.135Z,23.18
2019-04-19T15:55:53.876Z,23.09
2019-04-19T15:58:24.619Z,23.02
2019-04-19T16:00:59.484Z,23.02
2019-04-19T16:03:52.171Z,22.96
2019-04-19T16:06:50.589Z,22.90
2019-04-19T16:09:46.548Z,22.92
2019-04-19T16:12:27.143Z,22.79
2019-04-19T16:14:57.853Z,22.67
2019-04-19T16:17:29.417Z,22.71
2019-04-19T16:19:59.740Z,22.59
2019-04-19T16:22:32.105Z,22.55
2019-04-19T16:25:03.154Z,22.53
2019-04-19T16:27:33.715Z,22.56
2019-04-19T16:30:05.929Z,22.55
2019-04-19T16:32:37.027Z,22.49
2019-04-19T16:35:07.864Z,22.49
2019-04-19T16:37:39.255Z,22.46
2019-04-19T16:40:16.306Z,22.35
2019-04-19T16:42:47.481Z,22.27
2019-04-19T16:45:19.833Z,22.27
2019-04-19T16:47:51.384Z,22.19
2019-04-19T16:50:22.755Z,22.14
2019-04-19T16:52:54.571Z,22.02
2019-04-19T16:55:25.442Z,21.99
2019-04-19T16:57:56.611Z,22.02
2019-04-19T17:00:45.096Z,21.94
2019-04-19T17:03:17.335Z,21.81
2019-04-19T17:05:48.782Z,21.75
2019-04-19T17:08:19.644Z,21.75
2019-04-19T17:10:50.176Z,21.83
2019-04-19T17:13:20.649Z,21.82
2019-04-19T17:16:15.776Z,21.66
2019-04-19T17:19:08.797Z,21.52
2019-04-19T17:21:50.511Z,21.42
2019-04-19T17:24:14.165Z,21.32
2019-04-19T17:26:44.814Z,21.21
2019-04-19T17:29:15.184Z,21.01
2019-04-19T17:31:45.474Z,20.92
2019-04-19T17:34:16.127Z,20.82
2019-04-19T17:36:46.783Z,20.78
2019-04-19T17:39:17.105Z,20.59
2019-04-19T17:41:48.404Z,20.35
2019-04-19T17:44:19.782Z,20.23
2019-04-19T17:46:50.836Z,20.09
2019-04-19T17:49:22.437Z,19.94
2019-04-19T17:52:03.286Z,19.77
2019-04-19T17:54:44.559Z,19.61
2019-04-19T17:56:57.402Z,19.43
2019-04-19T17:59:27.971Z,19.25
2019-04-19T18:01:59.103Z,19.07
2019-04-19T18:04:30.330Z,18.90
2019-04-19T18:07:03.048Z,18.80
2019-04-19T18:09:33.159Z,18.65
2019-04-19T18:12:03.539Z,18.52
2019-04-19T18:14:34.270Z,18.33
2019-04-19T18:17:04.624Z,18.20
2019-04-19T18:19:38.153Z,18.01
2019-04-19T18:22:16.402Z,17.81
2019-04-19T18:24:46.928Z,17.69
2019-04-19T18:27:18.058Z,17.53
2019-04-19T18:29:44.260Z,17.35
2019-04-19T18:32:25.916Z,17.16
2019-04-19T18:34:56.325Z,17.07
2019-04-19T18:37:31.067Z,16.74
2019-04-19T18:39:58.798Z,16.51
2019-04-19T18:42:29.019Z,16.33
2019-04-19T18:45:02.864Z,16.15
2019-04-19T18:47:32.687Z,16.07
2019-04-19T18:50:04.472Z,15.96
2019-04-19T18:52:45.693Z,15.88
2019-04-19T18:55:10.601Z,15.74
2019-04-19T18:57:44.407Z,15.59
2019-04-19T19:00:12.790Z,15.49
2019-04-19T19:02:45.849Z,15.38
2019-04-19T19:05:16.624Z,15.21
2019-04-19T19:07:49.356Z,15.08
2019-04-19T19:10:25.884Z,14.82
2019-04-19T19:12:51.940Z,14.73
2019-04-19T19:15:25.084Z,14.63
2019-04-19T19:17:59.050Z,14.54
2019-04-19T19:20:36.699Z,14.34
2019-04-19T19:23:19.236Z,14.16
2019-04-19T19:25:48.160Z,13.98
2019-04-19T19:28:16.707Z,13.85
2019-04-19T19:30:47.058Z,13.76
2019-04-19T19:38:27.888Z,13.43
2019-04-19T19:41:08.099Z,13.26
2019-04-19T19:41:43.634Z,13.60
2019-04-19T19:41:43.809Z,13.46
2019-04-19T19:43:42.258Z,13.06
2019-04-19T19:46:23.058Z,12.77
2019-04-19T19:49:07.815Z,12.67
2019-04-19T19:51:23.873Z,12.61
2019-04-19T19:54:02.468Z,12.60
2019-04-19T19:56:35.397Z,12.45
2019-04-19T19:58:49.429Z,12.42
2019-04-19T20:01:26.711Z,12.23
2019-04-19T20:03:50.543Z,12.13
2019-04-19T20:06:24.557Z,12.02
2019-04-19T20:08:55.861Z,12.02
2019-04-19T20:11:30.022Z,11.99
2019-04-19T20:14:01.144Z,11.95
2019-04-19T20:16:33.328Z,11.85
2019-04-19T20:19:05.018Z,11.73
2019-04-19T20:21:36.816Z,11.62
2019-04-19T20:24:16.790Z,11.55
2019-04-19T20:26:54.985Z,11.49
2019-04-19T20:29:21.295Z,11.41
2019-04-19T20:39:48.290Z,11.11
2019-04-19T20:42:27.022Z,11.04
2019-04-19T20:45:00.840Z,10.91
2019-04-19T20:47:29.063Z,10.80
2019-04-19T20:49:58.336Z,10.69
2019-04-19T20:52:44.206Z,10.67
2019-04-19T20:55:25.202Z,10.55
2019-04-19T20:58:01.036Z,10.55
2019-04-19T21:00:33.440Z,10.38
2019-04-19T21:03:01.937Z,10.27
2019-04-19T21:05:35.685Z,10.18
2019-04-19T21:08:10.669Z,10.18
2019-04-19T21:10:42.590Z,10.09
2019-04-19T21:13:14.353Z,10.05
2019-04-19T21:15:45.210Z,9.98
2019-04-19T21:18:21.863Z,9.92
2019-04-19T21:20:50.135Z,9.82
2019-04-19T21:23:24.460Z,9.76
2019-04-19T21:25:57.186Z,9.66
2019-04-19T21:28:33.492Z,9.66
2019-04-19T21:31:00.851Z,9.51
2019-04-19T21:33:29.137Z,9.47
2019-04-19T21:36:04.619Z,9.31
2019-04-19T21:38:31.875Z,9.27
2019-04-19T21:41:13.337Z,9.15
2019-04-19T21:43:40.714Z,9.13
2019-04-19T21:46:12.579Z,9.04
2019-04-19T21:48:44.482Z,8.94
2019-04-19T21:51:24.509Z,8.84
2019-04-19T21:53:50.061Z,8.80
2019-04-19T21:56:21.682Z,8.75
2019-04-19T21:58:54.961Z,8.68
2019-04-19T22:01:25.850Z,8.70
2019-04-19T22:04:03.593Z,8.62
2019-04-19T22:06:31.387Z,8.54
2019-04-19T22:09:06.738Z,8.51
2019-04-19T22:11:32.423Z,8.41
2019-04-19T22:14:04.594Z,8.38
2019-04-19T22:16:39.747Z,8.29
2019-04-19T22:19:07.770Z,8.21
2019-04-19T22:21:44.051Z,8.15
2019-04-19T22:24:10.906Z,8.14
2019-04-19T22:26:47.401Z,8.11
2019-04-19T22:29:13.546Z,8.04
2019-04-19T22:31:43.733Z,7.99
2019-04-19T22:34:14.751Z,7.92
2019-04-19T22:36:48.554Z,7.82
2019-04-19T22:39:19.282Z,7.78
2019-04-19T22:41:50.714Z,7.69
2019-04-19T22:44:22.961Z,7.66
2019-04-19T22:46:56.522Z,7.62
2019-04-19T22:49:28.173Z,7.54
2019-04-19T22:51:58.790Z,7.48
2019-04-19T22:54:29.126Z,7.43
2019-04-19T22:57:09.378Z,7.39
2019-04-19T22:59:31.781Z,7.37
2019-04-19T23:02:17.189Z,7.34
2019-04-19T23:04:49.124Z,7.32
2019-04-19T23:07:20.737Z,7.23
2019-04-19T23:09:51.096Z,7.21
2019-04-19T23:12:22.609Z,7.18
2019-04-19T23:14:53.276Z,7.08
2019-04-19T23:17:29.328Z,7.03
2019-04-19T23:19:55.856Z,6.96
2019-04-19T23:22:31.936Z,6.86
2019-04-19T23:25:04.049Z,6.82
2019-04-19T23:27:40.779Z,6.75
2019-04-19T23:30:19.716Z,6.70
2019-04-19T23:32:48.414Z,6.62
2019-04-19T23:35:23.085Z,6.61
2019-04-19T23:37:51.494Z,6.61
2019-04-19T23:40:28.211Z,6.53
2019-04-19T23:42:55.518Z,6.54
2019-04-19T23:45:32.939Z,6.51
2019-04-19T23:48:00.279Z,6.56
2019-04-19T23:50:34.075Z,6.47
2019-04-19T23:53:05.575Z,6.42
2019-04-19T23:55:36.191Z,6.34
2019-04-19T23:58:06.570Z,6.30
